Time,TemperatureF,DewpointF,PressureIn,WindDirection,WindDirectionDegrees,WindSpeedMPH,WindSpeedGustMPH,Humidity,HourlyPrecipIn,Conditions,Clouds,dailyrainin,SoftwareType,DateUTC
2013-01-15 00:00:00,47.1,32.2,30.30,NNE,32,0.0,0.0,56,0.00,,SKC,-99.99,VWS V12.07,2013-01-14 22:00:00,
2013-01-15 00:05:00,46.9,32.1,30.30,NNE,32,0.0,0.0,56,0.00,,SKC,-99.99,VWS V12.07,2013-01-14 22:05:00,
2013-01-15 00:10:00,47.1,32.7,30.30,NNE,32,0.0,0.0,57,0.00,,SKC,-99.99,VWS V12.07,2013-01-14 22:10:00,
2013-01-15 00:15:00,46.9,32.5,30.30,NNE,32,0.0,0.0,57,0.00,,SKC,-99.99,VWS V12.07,2013-01-14 22:15:00,
2013-01-15 00:20:00,47.1,33.1,30.30,NNE,32,0.0,0.0,58,0.00,,SKC,-99.99,VWS V12.07,2013-01-14 22:20:00,
2013-01-15 00:25:00,46.9,33.0,30.30,NNE,32,0.0,0.0,58,0.00,,SKC,-99.99,VWS V12.07,2013-01-14 22:25:00,
2013-01-15 00:31:00,46.9,33.4,30.30,NNE,32,0.0,0.0,59,0.00,,SKC,-99.99,VWS V12.07,2013-01-14 22:31:00,
2013-01-15 00:36:00,46.9,33.4,30.30,NNE,32,0.0,3.1,59,0.00,,SKC,-99.99,VWS V12.07,2013-01-14 22:36:00,
2013-01-15 00:41:00,46.9,33.4,30.30,NNE,32,0.0,0.0,59,0.00,,SKC,-99.99,VWS V12.07,2013-01-14 22:41:00,
2013-01-15 00:46:00,46.9,33.8,30.30,NNE,32,0.0,0.0,60,0.00,,SKC,-99.99,VWS V12.07,2013-01-14 22:46:00,
2013-01-15 00:51:00,46.8,33.6,30.30,NNE,32,0.0,0.0,60,0.00,,SKC,-99.99,VWS V12.07,2013-01-14 22:51:00,
2013-01-15 00:56:00,46.6,33.0,30.30,NNE,32,0.0,0.0,59,0.00,,SKC,-99.99,VWS V12.07,2013-01-14 22:56:00,
2013-01-15 01:01:00,46.4,32.9,30.30,NNE,32,4.0,4.0,59,0.00,,SKC,-99.99,VWS V12.07,2013-01-14 23:01:00,
2013-01-15 01:06:00,46.4,31.6,30.30,NNE,32,0.0,4.0,56,0.00,,SKC,-99.99,VWS V12.07,2013-01-14 23:06:00,
2013-01-15 01:11:00,46.6,32.6,30.30,NNE,32,0.0,4.0,58,0.00,,SKC,-99.99,VWS V12.07,2013-01-14 23:11:00,
2013-01-15 01:16:00,46.4,32.0,30.30,NNE,32,0.0,4.0,57,0.00,,SKC,-99.99,VWS V12.07,2013-01-14 23:16:00,
2013-01-15 01:21:00,46.2,31.8,30.30,NNE,32,0.0,0.0,57,0.00,,SKC,-99.99,VWS V12.07,2013-01-14 23:21:00,
2013-01-15 01:26:00,46.2,31.8,30.30,NNE,32,0.0,0.0,57,0.00,,SKC,-99.99,VWS V12.07,2013-01-14 23:26:00,
2013-01-15 01:31:00,46.2,32.3,30.30,NNE,28,0.0,4.9,58,0.00,,SKC,-99.99,VWS V12.07,2013-01-14 23:31:00,
2013-01-15 01:36:00,46.2,32.3,30.30,NNE,28,0.0,4.9,58,0.00,,SKC,-99.99,VWS V12.07,2013-01-14 23:36:00,
2013-01-15 21:58:00,55.9,38.6,30.10,East,97,6.7,6.7,52,0.00,,SKC,-99.99,VWS V12.07,2013-01-15 19:58:00,
2013-01-15 22:00:00,55.9,37.6,30.10,South,175,5.4,7.2,50,0.00,,SKC,-99.99,VWS V12.07,2013-01-15 20:00:00,
2013-01-15 22:01:00,55.9,38.1,30.10,NNW,343,2.7,7.6,51,0.00,,SKC,-99.99,VWS V12.07,2013-01-15 20:01:00,
2013-01-15 22:06:00,55.9,37.6,30.10,SSW,202,3.6,7.6,50,0.00,,SKC,-99.99,VWS V12.07,2013-01-15 20:06:00,
2013-01-15 22:11:00,55.8,37.4,30.10,SSW,213,10.5,10.5,50,0.00,,SKC,-99.99,VWS V12.07,2013-01-15 20:11:00,
2013-01-15 22:14:00,55.8,36.9,30.10,SW,226,3.1,10.5,49,0.00,,SKC,-99.99,VWS V12.07,2013-01-15 20:14:00,
2013-01-15 22:19:00,55.2,36.4,30.10,South,171,5.8,10.5,49,0.00,,SKC,-99.99,VWS V12.07,2013-01-15 20:19:00,
2013-01-15 22:24:00,54.7,35.4,30.10,NNE,26,3.1,5.4,48,0.00,,SKC,-99.99,VWS V12.07,2013-01-15 20:24:00,
2013-01-15 22:29:00,54.3,37.1,30.10,ESE,123,0.0,7.2,52,0.00,,SKC,-99.99,VWS V12.07,2013-01-15 20:29:00,
2013-01-15 22:34:00,54.3,38.5,30.10,SW,221,5.8,9.6,55,0.00,,SKC,-99.99,VWS V12.07,2013-01-15 20:34:00,
2013-01-15 22:39:00,54.5,39.1,30.10,SSW,198,3.6,9.6,56,0.00,,SKC,-99.99,VWS V12.07,2013-01-15 20:39:00,
2013-01-15 22:44:00,54.7,37.4,30.10,South,172,3.1,8.3,52,0.00,,SKC,-99.99,VWS V12.07,2013-01-15 20:44:00,
2013-01-15 22:49:00,54.9,38.5,30.10,SW,224,0.0,8.3,54,0.00,,SKC,-99.99,VWS V12.07,2013-01-15 20:49:00,
2013-01-15 22:54:00,55.2,38.4,30.10,South,178,2.2,8.3,53,0.00,,SKC,-99.99,VWS V12.07,2013-01-15 20:54:00,
2013-01-15 22:59:00,55.2,36.9,30.10,SSW,209,3.1,8.3,50,0.00,,SKC,-99.99,VWS V12.07,2013-01-15 20:59:00,
2013-01-15 23:04:00,55.0,36.8,30.10,ESE,119,0.0,3.6,50,0.00,,SKC,-99.99,VWS V12.07,2013-01-15 21:04:00,
2013-01-15 23:09:00,55.0,37.3,30.10,SE,141,4.0,6.3,51,0.00,,SKC,-99.99,VWS V12.07,2013-01-15 21:09:00,
2013-01-15 23:14:00,55.2,37.9,30.07,South,182,5.8,7.6,52,0.00,,SKC,-99.99,VWS V12.07,2013-01-15 21:14:00,
2013-01-15 23:19:00,55.2,36.4,30.07,SSW,199,2.7,8.7,49,0.00,,SKC,-99.99,VWS V12.07,2013-01-15 21:19:00,
2013-01-15 23:24:00,55.0,35.7,30.07,South,182,2.7,6.3,48,0.00,,SKC,-99.99,VWS V12.07,2013-01-15 21:24:00,
2013-01-15 23:29:00,55.2,36.9,30.10,SW,215,4.0,7.6,50,0.00,,SKC,-99.99,VWS V12.07,2013-01-15 21:29:00,
2013-01-15 23:34:00,55.4,36.6,30.10,SW,219,4.0,9.6,49,0.00,,SKC,-99.99,VWS V12.07,2013-01-15 21:34:00,
2013-01-15 23:39:00,55.6,36.7,30.10,SSW,203,5.4,9.6,49,0.00,,SKC,-99.99,VWS V12.07,2013-01-15 21:39:00,
2013-01-15 23:44:00,55.4,36.1,30.10,South,186,4.0,7.6,48,0.00,,SKC,-99.99,VWS V12.07,2013-01-15 21:44:00,
2013-01-15 23:49:00,55.4,36.6,30.10,SSW,203,4.0,8.3,49,0.00,,SKC,-99.99,VWS V12.07,2013-01-15 21:49:00,
2013-01-15 23:54:00,55.2,36.9,30.10,West,261,3.1,8.3,50,0.00,,SKC,-99.99,VWS V12.07,2013-01-15 21:54:00,
2013-01-15 23:59:00,55.0,35.2,30.07,SSW,212,8.3,8.7,47,0.00,,SKC,-99.99,VWS V12.07,2013-01-15 21:59:00,